Time;durP1;ratioP1;P1;durP2;ratioP2;P2;SDS_P1;SDS_P2;PMS_P1;PMS_P2;Temp;Humidity;BMP_temperature;BMP_pressure;BME280_temperature;BME280_humidity;BME280_pressure;Samples;Min_cycle;Max_cycle;Signal;HPM_P1;HPM_P2
2023/05/10 00:01:43;;;;;;;5.27;3.60;;;14.90;99.90;;;;;;5055262;28;20181;-79
2023/05/10 00:04:08;;;;;;;3.23;2.93;;;14.90;99.90;;;;;;5054640;28;20173;-80
2023/05/10 00:06:34;;;;;;;4.10;3.70;;;14.80;99.90;;;;;;5055180;28;20184;-79
2023/05/10 00:09:00;;;;;;;4.03;3.67;;;14.80;99.90;;;;;;5037013;28;20235;-78
2023/05/10 00:11:25;;;;;;;4.00;3.70;;;14.90;99.90;;;;;;5054658;28;20181;-79
2023/05/10 00:13:51;;;;;;;3.60;3.30;;;14.90;99.90;;;;;;5072764;28;20181;-77
2023/05/10 00:16:17;;;;;;;4.43;4.03;;;14.90;99.90;;;;;;5038059;28;20215;-80
2023/05/10 00:18:42;;;;;;;4.20;3.80;;;14.90;99.90;;;;;;5054291;28;20185;-79
2023/05/10 00:21:08;;;;;;;3.83;3.53;;;14.90;99.90;;;;;;5053769;28;20656;-79
2023/05/10 00:23:34;;;;;;;4.60;4.07;;;14.90;99.90;;;;;;5072548;28;20672;-78
2023/05/10 00:25:59;;;;;;;5.20;3.60;;;14.90;99.90;;;;;;5055272;28;20211;-78
2023/05/10 00:28:27;;;;;;;3.90;3.50;;;14.90;99.90;;;;;;5054706;28;20185;-79
2023/05/10 00:30:53;;;;;;;4.00;3.60;;;14.90;99.90;;;;;;5038077;28;20273;-79
2023/05/10 00:33:19;;;;;;;4.67;3.90;;;14.90;99.90;;;;;;5072543;28;20899;-78
2023/05/10 00:35:45;;;;;;;4.73;4.23;;;14.90;99.90;;;;;;5055806;28;20197;-78
2023/05/10 00:38:10;;;;;;;5.37;4.57;;;14.80;99.90;;;;;;5038203;28;20169;-79
2023/05/10 00:40:37;;;;;;;5.07;4.57;;;14.80;99.90;;;;;;5037840;28;20192;-77
2023/05/10 00:43:03;;;;;;;4.70;4.10;;;14.80;99.90;;;;;;5054524;28;20205;-78
2023/05/10 00:45:30;;;;;;;5.50;5.00;;;14.80;99.90;;;;;;5072592;28;20451;-80
2023/05/10 00:47:56;;;;;;;8.43;5.00;;;14.80;99.90;;;;;;5072469;28;20426;-78
2023/05/10 00:50:23;;;;;;;5.80;5.00;;;14.80;99.90;;;;;;5054141;28;20431;-79
2023/05/10 00:52:49;;;;;;;6.30;5.67;;;14.80;99.90;;;;;;5054559;28;20546;-77
2023/05/10 00:55:15;;;;;;;5.97;5.30;;;14.90;99.90;;;;;;5054253;28;20787;-78
2023/05/10 00:57:42;;;;;;;5.80;5.20;;;14.90;99.90;;;;;;5072301;28;20512;-76
2023/05/10 01:00:08;;;;;;;7.10;5.77;;;14.90;99.90;;;;;;5053916;28;20189;-76
2023/05/10 01:02:35;;;;;;;5.80;4.90;;;14.90;99.90;;;;;;5037691;28;20407;-78
2023/05/10 01:05:03;;;;;;;7.40;6.57;;;14.90;99.90;;;;;;5037517;28;20411;-78
2023/05/10 01:07:29;;;;;;;6.70;6.00;;;14.80;99.90;;;;;;5054536;28;20777;-79
2023/05/10 01:09:55;;;;;;;7.13;6.43;;;14.90;99.90;;;;;;5054319;28;20542;-79
2023/05/10 01:12:21;;;;;;;7.37;6.60;;;14.90;99.90;;;;;;5054352;28;21036;-76
2023/05/10 01:14:47;;;;;;;7.67;6.70;;;14.90;99.90;;;;;;5055253;28;20408;-79
2023/05/10 01:17:14;;;;;;;7.13;6.43;;;14.80;99.90;;;;;;5072233;28;20493;-79
2023/05/10 01:19:40;;;;;;;7.40;6.60;;;14.80;99.90;;;;;;5075193;28;20691;-78
2023/05/10 01:22:43;;;;;;;7.57;6.77;;;14.80;99.90;;;;;;5077729;28;20733;-78
2023/05/10 01:25:46;;;;;;;7.40;6.23;;;14.80;99.90;;;;;;5079675;28;20421;-79
2023/05/10 01:28:18;;;;;;;7.63;6.20;;;14.80;99.90;;;;;;5045149;28;20403;-77
2023/05/10 01:31:14;;;;;;;6.47;5.60;;;14.80;99.90;;;;;;5063764;28;20435;-78
2023/05/10 01:33:59;;;;;;;6.60;6.00;;;14.70;99.90;;;;;;5063531;28;20414;-78
2023/05/10 01:36:42;;;;;;;5.97;5.37;;;14.80;99.90;;;;;;5080814;28;20466;-78
2023/05/10 01:39:35;;;;;;;5.60;5.10;;;14.70;99.90;;;;;;5062657;28;20477;-78
2023/05/10 01:42:02;;;;;;;5.97;5.37;;;14.70;99.90;;;;;;5079625;28;20514;-77
2023/05/10 01:45:09;;;;;;;6.90;6.20;;;14.70;99.90;;;;;;5060350;28;20418;-78
2023/05/10 01:47:50;;;;;;;6.17;5.57;;;14.70;99.90;;;;;;5058240;28;20791;-78
2023/05/10 01:50:19;;;;;;;7.67;5.60;;;14.70;99.90;;;;;;5058742;28;20461;-77
2023/05/10 01:52:53;;;;;;;7.50;6.70;;;14.70;99.90;;;;;;5058269;28;20496;-78
2023/05/10 01:55:21;;;;;;;6.30;5.60;;;14.70;99.90;;;;;;5056794;28;20505;-78
2023/05/10 01:57:50;;;;;;;6.73;6.03;;;14.70;99.90;;;;;;5057593;28;20827;-79
2023/05/10 02:00:19;;;;;;;7.13;6.43;;;14.70;99.90;;;;;;5057528;28;20845;-77
2023/05/10 02:02:51;;;;;;;6.90;6.10;;;14.60;99.90;;;;;;5057874;28;20423;-79
2023/05/10 02:05:19;;;;;;;7.57;6.33;;;14.60;99.90;;;;;;5057969;28;20432;-79
2023/05/10 02:07:46;;;;;;;6.93;6.27;;;14.50;99.90;;;;;;5023249;28;20802;-76
2023/05/10 02:10:14;;;;;;;6.87;6.17;;;14.60;99.90;;;;;;5069378;28;20450;-79
2023/05/10 02:12:43;;;;;;;6.83;6.20;;;14.60;99.90;;;;;;5059924;28;20716;-77
2023/05/10 02:15:11;;;;;;;6.53;5.83;;;14.60;99.90;;;;;;5043080;28;20414;-79
2023/05/10 02:17:38;;;;;;;7.07;6.20;;;14.60;99.90;;;;;;5078042;28;20486;-78
2023/05/10 02:20:06;;;;;;;7.50;6.10;;;14.60;99.90;;;;;;5059277;28;20483;-77
2023/05/10 02:22:32;;;;;;;6.73;5.43;;;14.60;99.90;;;;;;5077956;28;20409;-79
2023/05/10 02:25:00;;;;;;;7.70;6.20;;;14.60;99.90;;;;;;5077676;28;20433;-76
2023/05/10 02:27:27;;;;;;;8.67;5.70;;;14.60;99.90;;;;;;5059772;28;20407;-79
2023/05/10 02:29:55;;;;;;;6.27;5.67;;;14.60;99.90;;;;;;5059779;28;20431;-79
2023/05/10 02:32:23;;;;;;;7.17;5.87;;;14.50;99.90;;;;;;5055792;28;20514;-79
2023/05/10 02:34:51;;;;;;;5.73;5.20;;;14.50;99.90;;;;;;5056583;28;20415;-77
2023/05/10 02:37:19;;;;;;;7.37;6.17;;;14.60;99.90;;;;;;5074439;28;20458;-77
2023/05/10 02:39:48;;;;;;;7.13;6.33;;;14.60;99.90;;;;;;5073600;28;20435;-77
2023/05/10 02:42:18;;;;;;;8.60;7.03;;;14.60;99.90;;;;;;5056457;28;20457;-79
2023/05/10 02:44:47;;;;;;;7.30;6.60;;;14.60;99.90;;;;;;5056132;28;20483;-80
2023/05/10 02:47:13;;;;;;;11.03;7.37;;;14.50;99.90;;;;;;5074045;28;20447;-77
2023/05/10 02:49:39;;;;;;;9.03;6.70;;;14.50;99.90;;;;;;5074168;28;20442;-78
2023/05/10 02:52:09;;;;;;;8.17;7.30;;;14.50;99.90;;;;;;5056214;28;20180;-78
2023/05/10 02:54:44;;;;;;;10.00;7.50;;;14.40;99.90;;;;;;5055789;28;20522;-76
2023/05/10 02:57:15;;;;;;;10.57;7.93;;;14.30;99.90;;;;;;5055710;28;20939;-78
2023/05/10 02:59:42;;;;;;;8.37;6.73;;;14.40;99.90;;;;;;5073792;28;20432;-77
2023/05/10 03:02:10;;;;;;;8.97;8.03;;;14.40;99.90;;;;;;5039519;28;20434;-78
2023/05/10 03:04:35;;;;;;;11.00;8.57;;;14.40;99.90;;;;;;5055499;28;20874;-78
2023/05/10 03:07:02;;;;;;;11.50;8.00;;;14.40;99.90;;;;;;5074082;28;20446;-79
2023/05/10 03:09:28;;;;;;;10.43;7.70;;;14.40;99.90;;;;;;5073779;28;20255;-77
2023/05/10 03:12:17;;;;;;;8.70;7.27;;;14.40;99.90;;;;;;5056087;28;20415;-79
2023/05/10 03:14:57;;;;;;;8.10;7.20;;;14.40;99.90;;;;;;5002414;28;20419;-78
2023/05/10 03:17:30;;;;;;;9.23;7.63;;;14.40;99.90;;;;;;5055967;28;20411;-79
2023/05/10 03:20:06;;;;;;;11.20;8.10;;;14.40;99.90;;;;;;5054112;28;20523;-79
2023/05/10 03:22:36;;;;;;;7.80;6.97;;;14.40;99.90;;;;;;5073221;28;20926;-78
2023/05/10 03:25:06;;;;;;;10.00;6.77;;;14.40;99.90;;;;;;5055799;28;20904;-78
2023/05/10 03:27:33;;;;;;;10.40;7.57;;;14.40;99.90;;;;;;5074241;28;20434;-79
2023/05/10 03:30:01;;;;;;;12.10;7.77;;;14.40;99.90;;;;;;5072753;28;20431;-79
2023/05/10 03:32:30;;;;;;;11.00;8.13;;;14.30;99.90;;;;;;5071589;28;20400;-78
2023/05/10 03:34:55;;;;;;;8.37;7.07;;;14.30;99.90;;;;;;5053664;28;20412;-78
2023/05/10 03:37:21;;;;;;;9.10;7.60;;;14.30;99.90;;;;;;5053094;28;20477;-79
2023/05/10 03:39:47;;;;;;;10.73;7.67;;;14.30;99.90;;;;;;5053473;28;20205;-78
2023/05/10 03:42:12;;;;;;;10.17;8.20;;;14.30;99.90;;;;;;5070791;28;20175;-79
2023/05/10 03:44:41;;;;;;;10.10;8.17;;;14.30;99.90;;;;;;5053262;28;20721;-79
2023/05/10 03:47:07;;;;;;;10.10;7.90;;;14.30;99.90;;;;;;5051483;28;20181;-79
2023/05/10 03:49:33;;;;;;;10.53;8.77;;;14.30;99.90;;;;;;5052660;28;20435;-79
2023/05/10 03:51:58;;;;;;;10.57;8.53;;;14.30;99.90;;;;;;5052806;28;20552;-78
2023/05/10 03:54:24;;;;;;;14.20;8.70;;;14.40;99.90;;;;;;5070535;28;20173;-79
2023/05/10 03:56:50;;;;;;;12.37;9.70;;;14.30;99.90;;;;;;5052561;28;20219;-79
2023/05/10 03:59:15;;;;;;;14.33;10.50;;;14.30;99.90;;;;;;5052691;28;20545;-79
2023/05/10 04:01:41;;;;;;;14.07;10.87;;;14.20;99.90;;;;;;5050530;28;20181;-78
2023/05/10 04:04:07;;;;;;;15.00;11.33;;;14.30;99.90;;;;;;5065515;28;20181;-78
2023/05/10 04:06:32;;;;;;;20.07;12.10;;;14.30;99.90;;;;;;5048252;28;20574;-79
2023/05/10 04:09:03;;;;;;;15.67;12.47;;;14.30;99.90;;;;;;5066589;22;20299;-73
2023/05/10 04:11:29;;;;;;;20.20;12.87;;;14.30;99.90;;;;;;5028767;28;20860;-73
2023/05/10 04:13:55;;;;;;;17.87;12.97;;;14.30;99.90;;;;;;5029356;28;20416;-73
2023/05/10 04:16:21;;;;;;;17.70;13.90;;;14.30;99.90;;;;;;5027075;28;20269;-73
2023/05/10 04:18:49;;;;;;;17.27;13.10;;;14.20;99.90;;;;;;5021163;28;20187;-73
2023/05/10 04:21:15;;;;;;;14.50;11.47;;;14.20;99.90;;;;;;4996657;28;20188;-73
2023/05/10 04:23:41;;;;;;;20.43;15.03;;;14.30;99.90;;;;;;4989962;28;20414;-73
2023/05/10 04:26:07;;;;;;;14.73;12.17;;;14.20;99.90;;;;;;4988818;28;20180;-73
2023/05/10 04:28:33;;;;;;;19.53;14.47;;;14.20;99.90;;;;;;5000079;28;20939;-72
2023/05/10 04:31:10;;;;;;;16.80;12.70;;;14.20;99.90;;;;;;4997678;28;20459;-73
2023/05/10 04:33:36;;;;;;;15.97;12.17;;;14.20;99.90;;;;;;4994025;28;20190;-73
2023/05/10 04:36:03;;;;;;;17.20;13.33;;;14.20;99.90;;;;;;5005224;28;20830;-73
2023/05/10 04:38:29;;;;;;;18.83;13.57;;;14.20;99.90;;;;;;5003364;28;20494;-73
2023/05/10 04:41:05;;;;;;;17.00;13.90;;;14.20;99.90;;;;;;5006693;28;20468;-72
2023/05/10 04:43:30;;;;;;;17.97;13.47;;;14.30;99.90;;;;;;4998211;28;20410;-73
2023/05/10 04:45:59;;;;;;;17.60;12.40;;;14.30;99.90;;;;;;5009449;28;20413;-72
2023/05/10 04:48:25;;;;;;;18.40;13.20;;;14.20;99.90;;;;;;5023554;28;20189;-73
2023/05/10 04:50:51;;;;;;;18.20;13.23;;;14.20;99.90;;;;;;5010518;28;20535;-73
2023/05/10 04:53:16;;;;;;;18.03;13.57;;;14.20;99.90;;;;;;5001424;28;20187;-73
2023/05/10 04:55:42;;;;;;;20.83;14.80;;;14.20;99.90;;;;;;5008995;28;21214;-72
2023/05/10 04:58:08;;;;;;;20.03;14.60;;;14.20;99.90;;;;;;5009207;28;20545;-72
2023/05/10 05:00:33;;;;;;;20.80;15.07;;;14.20;99.90;;;;;;5009023;28;20257;-73
2023/05/10 05:02:59;;;;;;;21.20;15.37;;;14.30;99.90;;;;;;5008151;28;20186;-73
2023/05/10 05:05:25;;;;;;;20.07;15.50;;;14.20;99.90;;;;;;5002971;28;20207;-74
2023/05/10 05:07:51;;;;;;;21.87;16.30;;;14.20;99.90;;;;;;5000132;28;20240;-74
2023/05/10 05:10:16;;;;;;;23.80;15.83;;;14.20;99.90;;;;;;5002320;28;20219;-73
2023/05/10 05:12:42;;;;;;;22.27;17.27;;;14.20;99.90;;;;;;5007372;28;20186;-72
2023/05/10 05:15:09;;;;;;;20.40;15.53;;;14.20;99.90;;;;;;5023149;28;20194;-73
2023/05/10 05:17:35;;;;;;;22.70;17.50;;;14.20;99.90;;;;;;5008421;28;20185;-73
2023/05/10 05:20:01;;;;;;;27.17;18.43;;;14.30;99.90;;;;;;5008489;28;20430;-73
2023/05/10 05:22:27;;;;;;;24.20;18.00;;;14.20;99.90;;;;;;5015581;28;20430;-73
2023/05/10 05:24:54;;;;;;;24.33;17.43;;;14.30;99.90;;;;;;5004452;28;20426;-73
2023/05/10 05:27:24;;;;;;;23.40;17.50;;;14.30;99.90;;;;;;5007161;28;20923;-73
2023/05/10 05:29:53;;;;;;;26.33;18.53;;;14.30;99.90;;;;;;5008449;28;20481;-73
2023/05/10 05:32:19;;;;;;;24.47;18.83;;;14.30;99.90;;;;;;5008758;28;20843;-73
2023/05/10 05:34:45;;;;;;;26.80;20.77;;;14.30;99.90;;;;;;5008637;28;20483;-73
2023/05/10 05:37:29;;;;;;;31.00;19.53;;;14.30;99.90;;;;;;5007212;28;20210;-74
2023/05/10 05:39:55;;;;;;;27.67;20.00;;;14.30;99.90;;;;;;5006477;28;20736;-72
2023/05/10 05:42:20;;;;;;;26.23;18.30;;;14.40;99.90;;;;;;5002162;28;20426;-73
2023/05/10 05:44:46;;;;;;;26.20;18.93;;;14.40;99.90;;;;;;5006149;28;20679;-74
2023/05/10 05:47:12;;;;;;;27.17;20.53;;;14.40;99.90;;;;;;5003116;28;20275;-73
2023/05/10 05:49:38;;;;;;;25.87;20.10;;;14.40;99.90;;;;;;5002957;28;20625;-74
2023/05/10 05:52:04;;;;;;;27.00;18.87;;;14.40;99.90;;;;;;4995310;28;20234;-73
2023/05/10 05:54:30;;;;;;;27.83;21.87;;;14.40;99.90;;;;;;4988467;28;20665;-73
2023/05/10 05:57:00;;;;;;;28.20;20.57;;;14.30;99.90;;;;;;4988755;28;20545;-74
2023/05/10 05:59:27;;;;;;;29.90;21.20;;;14.40;99.90;;;;;;5009069;28;20464;-73
2023/05/10 06:01:52;;;;;;;30.97;22.00;;;14.40;99.90;;;;;;5000632;28;20478;-73
2023/05/10 06:04:19;;;;;;;31.70;22.00;;;14.40;99.90;;;;;;5001053;28;20430;-74
2023/05/10 06:06:45;;;;;;;31.87;22.20;;;14.40;99.90;;;;;;5001033;28;20258;-73
2023/05/10 06:09:11;;;;;;;30.77;21.83;;;14.40;99.90;;;;;;5021962;28;20564;-73
2023/05/10 06:11:37;;;;;;;30.47;22.87;;;14.40;99.90;;;;;;5004797;28;20915;-74
2023/05/10 06:14:04;;;;;;;34.50;23.23;;;14.50;99.90;;;;;;5000060;28;20698;-73
2023/05/10 06:16:30;;;;;;;30.67;22.40;;;14.50;99.90;;;;;;4996429;28;20261;-74
2023/05/10 06:18:56;;;;;;;33.77;22.10;;;14.50;99.90;;;;;;5009606;28;20426;-74
2023/05/10 06:21:22;;;;;;;33.17;21.97;;;14.50;99.90;;;;;;4997812;28;20479;-73
2023/05/10 06:23:47;;;;;;;26.47;19.60;;;14.50;99.90;;;;;;5026602;28;20179;-73
2023/05/10 06:26:13;;;;;;;31.10;22.97;;;14.50;99.90;;;;;;5011189;28;20183;-73
2023/05/10 06:28:39;;;;;;;28.67;20.87;;;14.60;99.90;;;;;;5009805;28;20536;-74
2023/05/10 06:31:06;;;;;;;32.43;22.03;;;14.60;99.90;;;;;;5010725;28;20207;-73
2023/05/10 06:33:32;;;;;;;30.00;22.20;;;14.60;99.90;;;;;;5011505;28;20442;-73
2023/05/10 06:35:58;;;;;;;30.87;21.33;;;14.60;99.90;;;;;;5010268;28;20549;-74
2023/05/10 06:38:24;;;;;;;31.70;21.53;;;14.60;99.90;;;;;;5011324;28;20959;-74
2023/05/10 06:40:50;;;;;;;32.90;22.73;;;14.60;99.90;;;;;;5011200;28;20556;-74
2023/05/10 06:43:16;;;;;;;31.80;23.40;;;14.70;99.90;;;;;;5011194;28;20417;-73
2023/05/10 06:45:42;;;;;;;35.13;23.90;;;14.60;99.90;;;;;;5011226;28;20403;-73
2023/05/10 06:48:07;;;;;;;32.23;23.50;;;14.70;99.90;;;;;;5024859;28;20237;-73
2023/05/10 06:50:33;;;;;;;32.93;25.17;;;14.60;99.90;;;;;;5010461;28;20245;-74
2023/05/10 06:53:00;;;;;;;31.03;23.10;;;14.70;99.90;;;;;;5011020;28;20191;-73
2023/05/10 06:55:26;;;;;;;31.37;22.90;;;14.70;99.90;;;;;;5011078;28;20985;-73
2023/05/10 06:57:52;;;;;;;30.37;22.00;;;14.80;99.90;;;;;;5026211;28;20457;-73
2023/05/10 07:00:18;;;;;;;29.33;22.30;;;14.80;99.90;;;;;;5010796;28;21082;-73
2023/05/10 07:02:44;;;;;;;30.90;22.60;;;14.80;99.90;;;;;;5011052;28;20418;-73
2023/05/10 07:05:11;;;;;;;33.00;23.10;;;14.90;99.90;;;;;;5026018;28;20467;-73
2023/05/10 07:07:37;;;;;;;30.03;22.37;;;14.90;99.90;;;;;;5025733;28;20421;-73
2023/05/10 07:10:03;;;;;;;31.60;22.70;;;15.00;99.90;;;;;;5010557;28;20450;-73
2023/05/10 07:12:28;;;;;;;28.53;22.50;;;15.00;99.90;;;;;;5010697;28;20179;-73
2023/05/10 07:14:54;;;;;;;30.23;22.20;;;15.10;99.90;;;;;;5010660;28;20432;-73
2023/05/10 07:17:20;;;;;;;29.03;21.90;;;15.20;99.90;;;;;;5025112;28;20211;-74
2023/05/10 07:19:46;;;;;;;25.93;19.87;;;15.20;99.90;;;;;;5010519;28;20562;-73
2023/05/10 07:22:12;;;;;;;30.20;20.40;;;15.20;99.90;;;;;;5009355;28;20310;-74
2023/05/10 07:24:37;;;;;;;31.43;20.07;;;15.30;99.90;;;;;;5025527;28;20182;-74
2023/05/10 07:27:04;;;;;;;26.27;19.57;;;15.30;99.90;;;;;;5010401;28;20577;-73
2023/05/10 07:29:29;;;;;;;28.17;20.00;;;15.30;99.90;;;;;;5009947;28;20203;-73
2023/05/10 07:31:55;;;;;;;30.23;21.50;;;15.30;99.90;;;;;;5010760;28;20913;-73
2023/05/10 07:34:21;;;;;;;29.63;21.93;;;15.30;99.90;;;;;;5008892;28;20194;-74
2023/05/10 07:36:47;;;;;;;26.33;19.70;;;15.30;99.90;;;;;;5010259;28;20214;-73
2023/05/10 07:39:12;;;;;;;29.60;21.10;;;15.30;99.90;;;;;;5010337;28;20290;-73
2023/05/10 07:41:38;;;;;;;29.03;21.40;;;15.30;99.90;;;;;;5010063;28;20651;-74
2023/05/10 07:44:06;;;;;;;38.43;22.83;;;15.30;99.90;;;;;;5025170;28;20179;-73
2023/05/10 07:46:32;;;;;;;32.53;22.63;;;15.40;99.90;;;;;;5008903;28;20193;-73
2023/05/10 07:48:57;;;;;;;33.87;22.97;;;15.40;99.90;;;;;;5010047;28;20411;-74
2023/05/10 07:51:23;;;;;;;33.87;23.40;;;15.50;99.90;;;;;;5009819;28;20214;-73
2023/05/10 07:53:49;;;;;;;32.63;22.90;;;15.40;99.90;;;;;;5024973;28;20191;-73
2023/05/10 07:56:21;;;;;;;37.70;24.40;;;15.50;99.90;;;;;;5009948;28;20442;-74
2023/05/10 07:58:47;;;;;;;34.10;23.27;;;15.50;99.90;;;;;;5008549;28;20176;-73
2023/05/10 08:01:12;;;;;;;31.57;23.47;;;15.50;99.90;;;;;;5009669;28;20434;-73
2023/05/10 08:03:38;;;;;;;29.00;22.03;;;15.50;99.90;;;;;;5009619;28;20573;-73
2023/05/10 08:06:04;;;;;;;36.00;24.10;;;15.50;99.90;;;;;;5025085;28;20190;-73
2023/05/10 08:08:29;;;;;;;38.30;25.13;;;15.40;99.90;;;;;;5009517;28;20524;-73
2023/05/10 08:10:55;;;;;;;33.50;20.93;;;15.50;99.90;;;;;;5024373;28;20507;-73
2023/05/10 08:13:21;;;;;;;30.77;21.93;;;15.40;99.90;;;;;;5024564;28;20298;-74
2023/05/10 08:15:47;;;;;;;30.97;20.93;;;15.40;99.90;;;;;;5009653;28;20217;-73
2023/05/10 08:18:13;;;;;;;30.97;21.60;;;15.40;99.90;;;;;;5009359;28;20414;-73
2023/05/10 08:20:39;;;;;;;31.07;21.83;;;15.50;99.90;;;;;;5009299;28;20195;-74
2023/05/10 08:23:04;;;;;;;29.57;20.00;;;15.40;99.90;;;;;;5009260;28;20410;-74
2023/05/10 08:25:31;;;;;;;34.00;21.53;;;15.40;99.90;;;;;;5009695;28;20187;-73
2023/05/10 08:27:57;;;;;;;30.53;21.00;;;15.50;99.90;;;;;;5009315;28;20186;-73
2023/05/10 08:30:22;;;;;;;30.70;21.10;;;15.50;99.90;;;;;;5007708;28;20793;-74
2023/05/10 08:32:48;;;;;;;32.63;20.40;;;15.50;99.90;;;;;;5009212;28;20190;-73
2023/05/10 08:35:14;;;;;;;33.20;22.20;;;15.50;99.90;;;;;;5024294;28;20194;-73
2023/05/10 08:37:39;;;;;;;28.57;19.30;;;15.50;99.90;;;;;;5024198;28;20175;-73
2023/05/10 08:40:06;;;;;;;30.83;21.27;;;15.50;99.90;;;;;;5008842;28;20513;-74
2023/05/10 08:42:36;;;;;;;28.77;20.43;;;15.50;99.90;;;;;;5023532;28;20233;-74
2023/05/10 08:45:03;;;;;;;28.43;20.60;;;15.60;99.90;;;;;;5009075;28;20487;-73
2023/05/10 08:47:29;;;;;;;26.87;18.67;;;15.60;99.90;;;;;;5008846;28;20421;-72
2023/05/10 08:49:56;;;;;;;29.40;18.40;;;15.70;99.90;;;;;;5007648;28;20936;-73
2023/05/10 08:52:25;;;;;;;27.70;19.50;;;15.70;99.90;;;;;;5009005;28;20410;-74
2023/05/10 08:54:51;;;;;;;27.90;17.50;;;15.60;99.90;;;;;;5008908;28;20779;-73
2023/05/10 08:57:18;;;;;;;22.37;15.10;;;15.70;99.90;;;;;;5008443;28;20472;-73
2023/05/10 08:59:45;;;;;;;20.60;14.20;;;15.70;99.90;;;;;;5008677;28;20269;-74
2023/05/10 09:02:12;;;;;;;20.23;13.47;;;15.70;99.90;;;;;;5008855;28;20545;-73
2023/05/10 09:04:38;;;;;;;16.93;12.17;;;15.80;99.90;;;;;;5008783;28;20410;-74
2023/05/10 09:07:04;;;;;;;15.53;9.83;;;15.90;99.90;;;;;;5008430;28;20410;-73
2023/05/10 09:09:30;;;;;;;15.40;11.30;;;15.90;99.90;;;;;;5008362;28;20305;-72
2023/05/10 09:11:56;;;;;;;16.00;10.73;;;16.00;99.90;;;;;;5023988;28;20414;-73
2023/05/10 09:14:24;;;;;;;13.60;9.43;;;16.00;99.90;;;;;;5008521;28;20414;-74
2023/05/10 09:16:50;;;;;;;13.80;10.00;;;16.00;99.90;;;;;;5008425;28;20234;-73
2023/05/10 09:19:16;;;;;;;13.53;10.50;;;16.00;99.90;;;;;;5008498;28;20429;-74
2023/05/10 09:21:42;;;;;;;13.97;10.63;;;16.00;99.90;;;;;;5008638;28;20402;-73
2023/05/10 09:24:08;;;;;;;15.10;11.37;;;16.00;99.90;;;;;;5008520;28;20218;-72
2023/05/10 09:26:36;;;;;;;17.00;11.83;;;16.00;99.90;;;;;;5023812;28;20174;-73
2023/05/10 09:29:03;;;;;;;16.53;10.53;;;16.00;99.90;;;;;;5007770;28;20428;-72
2023/05/10 09:31:47;;;;;;;15.30;10.80;;;16.00;99.90;;;;;;5008308;28;20425;-74
2023/05/10 09:34:28;;;;;;;13.67;10.60;;;16.00;99.90;;;;;;5008430;28;21056;-74
2023/05/10 09:36:56;;;;;;;16.83;11.07;;;16.10;99.90;;;;;;5023312;28;20989;-73
2023/05/10 09:39:36;;;;;;;16.07;10.50;;;16.10;99.90;;;;;;5008274;28;20438;-73
2023/05/10 09:42:07;;;;;;;17.23;10.90;;;16.20;99.90;;;;;;5012032;28;20406;-72
2023/05/10 09:44:33;;;;;;;14.30;11.37;;;16.20;99.90;;;;;;5012066;28;20405;-74
2023/05/10 09:47:00;;;;;;;18.37;11.43;;;16.30;99.90;;;;;;5012147;28;21117;-74
2023/05/10 09:49:26;;;;;;;15.60;10.77;;;16.20;99.90;;;;;;5027335;28;20816;-73
2023/05/10 09:52:07;;;;;;;14.63;11.03;;;16.30;99.90;;;;;;5012252;28;20441;-73
2023/05/10 09:54:34;;;;;;;15.00;10.80;;;16.30;99.90;;;;;;5012090;28;20508;-73
2023/05/10 09:57:00;;;;;;;16.73;11.47;;;16.30;99.90;;;;;;5011797;28;20949;-73
2023/05/10 09:59:27;;;;;;;16.20;11.37;;;16.30;99.90;;;;;;5027132;28;20789;-73
2023/05/10 10:01:57;;;;;;;17.03;11.83;;;16.30;99.90;;;;;;5012059;28;20413;-72
2023/05/10 10:04:23;;;;;;;21.63;12.20;;;16.20;99.90;;;;;;5010519;28;20410;-73
2023/05/10 10:07:00;;;;;;;16.90;11.73;;;16.30;99.90;;;;;;5011810;28;20901;-73
2023/05/10 10:09:27;;;;;;;21.70;13.10;;;16.20;99.90;;;;;;5038665;22;20296;-76
2023/05/10 10:11:53;;;;;;;17.43;12.00;;;16.20;99.90;;;;;;5051718;28;20408;-77
2023/05/10 10:14:20;;;;;;;16.93;11.63;;;16.20;99.90;;;;;;5033796;28;20484;-76
2023/05/10 10:16:46;;;;;;;16.87;12.30;;;16.20;99.90;;;;;;5033658;28;20464;-77
2023/05/10 10:19:12;;;;;;;19.13;13.20;;;16.30;99.90;;;;;;5033775;28;20412;-75
2023/05/10 10:21:38;;;;;;;23.30;15.30;;;16.30;99.90;;;;;;4997414;28;20402;-76
2023/05/10 10:24:05;;;;;;;25.87;17.30;;;16.30;99.90;;;;;;5031429;28;20460;-76
2023/05/10 10:26:33;;;;;;;27.07;17.60;;;16.30;99.90;;;;;;5031887;28;20202;-76
2023/05/10 10:29:14;;;;;;;27.20;17.43;;;16.40;99.90;;;;;;5013095;28;20500;-77
2023/05/10 10:31:53;;;;;;;23.40;15.77;;;16.30;99.90;;;;;;5013658;28;20409;-76
2023/05/10 10:34:30;;;;;;;24.10;17.17;;;16.30;99.90;;;;;;5013592;28;20413;-76
2023/05/10 10:36:57;;;;;;;24.40;16.83;;;16.30;99.90;;;;;;5031448;28;20483;-76
2023/05/10 10:39:26;;;;;;;23.00;16.47;;;16.40;99.90;;;;;;5013602;28;20414;-77
2023/05/10 10:41:53;;;;;;;22.63;14.13;;;16.40;99.90;;;;;;5031203;28;20520;-76
2023/05/10 10:44:22;;;;;;;19.73;13.03;;;16.50;99.90;;;;;;5013565;28;20965;-76
2023/05/10 10:47:05;;;;;;;20.53;13.23;;;16.50;99.90;;;;;;5046466;28;20420;-76
2023/05/10 10:49:33;;;;;;;17.90;12.80;;;16.50;99.90;;;;;;5033120;28;20420;-76
2023/05/10 10:52:18;;;;;;;17.30;13.37;;;16.60;99.90;;;;;;5050256;28;20908;-76
2023/05/10 10:55:08;;;;;;;17.30;12.60;;;16.60;99.90;;;;;;5051199;28;20454;-77
2023/05/10 10:58:00;;;;;;;17.30;12.97;;;16.60;99.90;;;;;;5050866;28;20502;-77
2023/05/10 11:00:34;;;;;;;19.50;12.30;;;16.60;99.90;;;;;;5051242;28;20455;-76
2023/05/10 11:03:13;;;;;;;16.83;12.00;;;16.60;99.90;;;;;;5033176;28;20412;-77
2023/05/10 11:05:49;;;;;;;17.40;12.17;;;16.50;99.90;;;;;;5051167;28;20423;-76
2023/05/10 11:08:19;;;;;;;14.30;12.80;;;16.50;99.90;;;;;;5033037;28;20510;-76
2023/05/10 11:10:58;;;;;;;20.23;14.10;;;16.50;99.90;;;;;;5032990;28;20459;-77
2023/05/10 11:13:31;;;;;;;19.63;14.80;;;16.50;99.90;;;;;;5050777;28;20428;-76
2023/05/10 11:15:58;;;;;;;19.03;16.07;;;16.40;99.90;;;;;;5051056;28;20455;-77
2023/05/10 11:18:28;;;;;;;19.53;15.50;;;16.40;99.90;;;;;;5050960;28;20773;-76
2023/05/10 11:21:00;;;;;;;20.97;17.37;;;16.50;99.90;;;;;;5051008;28;20435;-77
2023/05/10 11:23:46;;;;;;;19.33;15.57;;;16.60;99.90;;;;;;5033219;28;20737;-77
2023/05/10 11:26:13;;;;;;;19.60;15.57;;;16.60;99.90;;;;;;5033221;28;20557;-77
2023/05/10 11:28:48;;;;;;;19.37;15.30;;;16.60;99.90;;;;;;5050628;28;20503;-77
2023/05/10 11:31:18;;;;;;;19.10;15.43;;;16.60;99.90;;;;;;5050060;28;20439;-77
2023/05/10 11:33:51;;;;;;;18.70;14.57;;;16.60;99.90;;;;;;5032879;28;21058;-76
2023/05/10 11:36:18;;;;;;;17.77;13.10;;;16.60;99.90;;;;;;5050893;28;20478;-77
2023/05/10 11:38:45;;;;;;;15.77;11.80;;;16.50;99.90;;;;;;5050253;28;20417;-77
2023/05/10 11:41:12;;;;;;;14.40;12.10;;;16.40;99.90;;;;;;5050451;28;20428;-76
2023/05/10 11:43:41;;;;;;;17.73;12.90;;;16.40;99.90;;;;;;5050265;28;20431;-77
2023/05/10 11:46:10;;;;;;;17.77;12.90;;;16.40;99.90;;;;;;5032590;28;20826;-76
2023/05/10 11:48:36;;;;;;;13.90;11.43;;;16.40;99.90;;;;;;5050507;28;20558;-77
2023/05/10 11:51:02;;;;;;;16.70;12.37;;;16.40;99.90;;;;;;5050307;28;20440;-77
2023/05/10 11:53:32;;;;;;;16.33;10.80;;;16.40;99.90;;;;;;5031913;28;20420;-77
2023/05/10 11:56:05;;;;;;;16.10;10.30;;;16.40;99.90;;;;;;5050152;28;20209;-77
2023/05/10 11:58:32;;;;;;;15.30;11.63;;;16.40;99.90;;;;;;5031976;28;20466;-77
2023/05/10 12:00:59;;;;;;;15.90;11.57;;;16.50;99.90;;;;;;5050080;28;20490;-77
2023/05/10 12:03:26;;;;;;;13.07;10.03;;;16.50;99.90;;;;;;5031817;28;20421;-76
2023/05/10 12:05:52;;;;;;;17.20;12.10;;;16.50;99.90;;;;;;5032345;28;20466;-77
2023/05/10 12:08:22;;;;;;;14.60;10.60;;;16.60;99.90;;;;;;5049540;28;20915;-76
2023/05/10 12:10:48;;;;;;;14.97;10.33;;;16.60;99.90;;;;;;5032906;28;21021;-77
2023/05/10 12:13:15;;;;;;;14.33;11.67;;;16.60;99.90;;;;;;5011925;28;20833;-76
2023/05/10 12:15:41;;;;;;;15.23;12.37;;;16.50;99.90;;;;;;5012340;28;20203;-77
2023/05/10 12:18:14;;;;;;;15.13;12.07;;;16.50;99.90;;;;;;5011969;28;20425;-76
2023/05/10 12:20:41;;;;;;;13.80;11.93;;;16.50;99.90;;;;;;5029673;28;20433;-76
2023/05/10 12:23:09;;;;;;;16.50;12.97;;;16.50;99.90;;;;;;5029629;28;20413;-77
2023/05/10 12:25:37;;;;;;;15.20;11.63;;;16.50;99.90;;;;;;5029852;28;20925;-77
2023/05/10 12:28:05;;;;;;;15.03;11.43;;;16.50;99.90;;;;;;5029377;28;20854;-76
2023/05/10 12:30:33;;;;;;;13.93;10.93;;;16.60;99.90;;;;;;5011321;28;20809;-76
2023/05/10 12:33:07;;;;;;;13.60;11.23;;;16.70;99.90;;;;;;5011668;28;20417;-77
2023/05/10 12:35:43;;;;;;;15.13;13.53;;;16.80;99.90;;;;;;5029741;28;20420;-77
2023/05/10 12:38:33;;;;;;;15.63;11.77;;;16.80;99.90;;;;;;5029139;28;20417;-76
2023/05/10 12:41:01;;;;;;;14.23;11.33;;;16.80;99.90;;;;;;5029252;28;20767;-76